Аэропорт: Пашковский. Краснодар

ICAO: URKK

METAR:
2018/05/20 23:00
URKK 202300Z 26003MPS CAVOK 18/14 Q1013 R23L/CLRD70 NOSIG RMK QFE756
METAR:
2018/05/20 21:21
TAF URKK 201955Z 2021/2121 30003G08MPS 9999 SCT030CB 
      TEMPO 2021/2121 VRB06G14MPS 3100 -TSRA BKN011 BKN020CB